Barros Cassal, Brazil
Current Conditions -  °F | °C
As of 6:00 AM on Wednesday 22 Oct 2014 (Local Time) from SBPF Reporting Station
Few Clouds Few Clouds  
Wind Chill: 57°   Ceiling: Unl
Heat Index: 57°   Visibility: 6mi
Dew Point: 55°   Wind: 12mph
Humidity: 94%   Direction: 80°E
Pressure: 30.12"   Gusts: NA
Location:  29.09°S, 52.58°W
Report Text: SBPF 220800Z 08010KT 9000 FEW001 14/13 Q1020
Loading
Personal Weather Stations






























Interactive Weather Map
Tropical Storm Tracking
New forecast layout! Learn more

10-Day Weather Forecast

Advertisements
Track Severe Weather on mobile